ěÝzenÝ letovÚho provozu ╚eskÚ republiky
Letiste: LKPD Aktualizace: 26.09.2022 14:29:32  UTC
 METAR LKPD 26.09. 14:30 ...
METAR LKPD 261430Z VRB04KT 9999 SCT025 16/10 Q1005 NOSIG RMK BLU BLU=
 TAF LKPD 26.09. 11:00 ...
TAF LKPD 261100Z 2612/2712 29010KT 9999 SCT020 BKN035      TEMPO 2612/2618 BKN020      PROB40 TEMPO 2612/2618 30015G25KT 7000 SHRA SCT012 BKN020CB      BECMG 2618/2620 21007KT SCT035      BECMG 2702/2705 OVC027      TEMPO 2707/2712 6000 RA BKN010 OVC020=